createdAt,value
2019-02-22T00:01:30.170Z,8
2019-02-22T00:11:27.849Z,8
2019-02-22T00:21:28.439Z,8
2019-02-22T00:31:26.977Z,8
2019-02-22T00:41:28.194Z,8
2019-02-22T00:51:29.473Z,8
2019-02-22T01:01:29.447Z,8
2019-02-22T01:11:29.294Z,8
2019-02-22T01:21:27.059Z,8
2019-02-22T01:31:27.646Z,8
2019-02-22T01:41:27.346Z,8
2019-02-22T01:51:27.429Z,8
2019-02-22T02:01:27.361Z,8
2019-02-22T02:11:28.349Z,8
2019-02-22T02:21:28.256Z,8
2019-02-22T02:31:30.765Z,8
2019-02-22T02:41:28.170Z,8
2019-02-22T02:51:28.537Z,8
2019-02-22T03:01:27.094Z,8
2019-02-22T03:11:28.232Z,8
2019-02-22T03:21:27.684Z,8
2019-02-22T03:31:28.602Z,8
2019-02-22T03:42:40.609Z,8
2019-02-22T03:51:30.141Z,8
2019-02-22T04:01:28.064Z,8
2019-02-22T04:11:28.514Z,9
2019-02-22T04:21:27.331Z,8
2019-02-22T04:31:27.454Z,9
2019-02-22T04:41:27.461Z,8
2019-02-22T04:51:27.407Z,8
2019-02-22T05:01:27.016Z,8
2019-02-22T05:11:28.193Z,7
2019-02-22T05:21:27.516Z,7
2019-02-22T05:31:29.270Z,6
2019-02-22T05:41:28.099Z,6
2019-02-22T05:51:29.138Z,6
2019-02-22T06:01:27.703Z,6
2019-02-22T06:11:27.209Z,6
2019-02-22T06:21:41.878Z,5
2019-02-22T06:31:27.394Z,5
2019-02-22T06:41:27.255Z,1
2019-02-22T06:51:28.905Z,5
2019-02-22T07:01:28.718Z,5
2019-02-22T07:11:27.464Z,5
2019-02-22T07:21:38.785Z,5
2019-02-22T07:31:27.578Z,5
2019-02-22T07:41:27.212Z,4
2019-02-22T07:51:27.415Z,5
2019-02-22T08:01:28.347Z,4
2019-02-22T08:11:27.221Z,4
2019-02-22T08:21:26.999Z,4
2019-02-22T08:31:33.299Z,4
2019-02-22T08:41:27.819Z,4
2019-02-22T08:51:27.334Z,4
2019-02-22T09:01:26.919Z,4
2019-02-22T09:11:29.261Z,4
2019-02-22T09:21:27.286Z,4
2019-02-22T09:31:28.183Z,4
2019-02-22T09:41:27.703Z,4
2019-02-22T09:51:27.823Z,4
2019-02-22T10:01:27.707Z,4
2019-02-22T10:11:27.919Z,4
2019-02-22T10:21:27.711Z,4
2019-02-22T10:31:27.707Z,4
2019-02-22T10:41:27.598Z,4
2019-02-22T10:51:29.397Z,5
2019-02-22T11:01:27.009Z,4
2019-02-22T11:11:28.755Z,5
2019-02-22T11:21:27.442Z,4
2019-02-22T11:31:27.271Z,4
2019-02-22T11:41:27.907Z,4
2019-02-22T11:51:28.896Z,4
2019-02-22T12:01:27.706Z,4
2019-02-22T12:11:31.147Z,4
2019-02-22T12:21:29.615Z,4
2019-02-22T12:31:29.185Z,4
2019-02-22T12:41:27.755Z,4
2019-02-22T12:51:27.662Z,4
2019-02-22T13:01:27.239Z,4
2019-02-22T13:11:28.726Z,4
2019-02-22T13:21:29.268Z,5
2019-02-22T13:31:31.469Z,5
2019-02-22T13:41:27.834Z,4
2019-02-22T13:51:30.870Z,5
2019-02-22T14:01:27.197Z,4
2019-02-22T14:11:30.666Z,4
2019-02-22T14:21:27.383Z,4
2019-02-22T14:31:33.874Z,4
2019-02-22T14:41:33.360Z,4
2019-02-22T14:52:39.344Z,4
2019-02-22T15:01:32.482Z,4
2019-02-22T15:11:30.978Z,4
2019-02-22T15:21:26.941Z,4
2019-02-22T15:31:37.475Z,5
2019-02-22T15:41:27.105Z,5
2019-02-22T15:51:27.429Z,4
2019-02-22T16:01:29.612Z,3
2019-02-22T16:11:29.165Z,3
2019-02-22T16:21:27.166Z,3
2019-02-22T16:31:28.418Z,3
2019-02-22T16:41:29.034Z,3
2019-02-22T16:51:27.918Z,3
2019-02-22T17:11:27.882Z,2
2019-02-22T17:21:27.689Z,2
2019-02-22T17:31:27.910Z,2
2019-02-22T17:41:28.133Z,2
2019-02-22T17:51:28.354Z,2
2019-02-22T18:01:26.900Z,2
2019-02-22T18:11:28.983Z,2
2019-02-22T18:21:28.742Z,2
2019-02-22T18:31:27.299Z,2
2019-02-22T18:41:27.082Z,2
2019-02-22T18:51:28.909Z,2
2019-02-22T19:01:28.529Z,2
2019-02-22T19:11:27.149Z,2
2019-02-22T19:21:28.498Z,2
2019-02-22T19:31:28.238Z,1
2019-02-22T19:41:27.935Z,1
2019-02-22T19:51:27.431Z,2
2019-02-22T20:01:27.516Z,1
2019-02-22T20:11:27.357Z,1
2019-02-22T20:21:27.506Z,1
2019-02-22T20:31:27.391Z,1
2019-02-22T20:41:28.486Z,1
2019-02-22T20:51:27.493Z,1
2019-02-22T21:01:27.096Z,1
2019-02-22T21:11:28.371Z,1
2019-02-22T21:21:27.716Z,1
2019-02-22T21:31:27.822Z,1
2019-02-22T21:41:30.280Z,1
2019-02-22T21:51:27.603Z,1
2019-02-22T22:01:27.553Z,1
2019-02-22T22:11:29.289Z,1
2019-02-22T22:21:27.174Z,1
2019-02-22T22:31:29.874Z,1
2019-02-22T22:41:29.383Z,1
2019-02-22T22:51:28.018Z,1
2019-02-22T23:01:27.887Z,1
2019-02-22T23:11:27.858Z,1
2019-02-22T23:21:29.982Z,1
2019-02-22T23:31:29.103Z,1
2019-02-22T23:41:29.750Z,1
2019-02-22T23:51:27.103Z,1
